Latest Weather Observations for Mount William

IDV60801

Issued at 2:02 pm EST Monday 27 April 2015 (issued every 30 minutes, with the page automatically refreshed every 10 minutes)

About weather observations | Map of weather stations | Latest weather observations for VIC | Other Formats
Station Details ID: 079103 Name: MOUNT WILLIAM Lat: -37.30 Lon: 142.60 Height: 1150.0 m
Data from the previous 72 hours. | See also: Recent months at Mount William
Date/Time
EST
Temp
°C
App
Temp
°C
Dew
Point
Rel
Hum
%
Delta-T
°C
Wind Press
QNH
hPa
Press
MSL
hPa
Rain
since 9 am
mm
Dir
 
Spd
km/h
Gust
km/h
Spd
kts
Gust
kts
27/02:00pm - - - - - SW 19 35 10 19 - - 0.2
27/01:30pm - - - - - SW 26 35 14 19 - - 0.2
27/01:00pm - - - - - WSW 15 28 8 15 - - 0.0
27/12:30pm - - - - - SW 20 39 11 21 - - 0.0
27/12:00pm - - - - - WSW 17 37 9 20 - - 0.0
27/11:30am - - - - - SW 20 33 11 18 - - 0.0
27/11:00am - - - - - SW 22 41 12 22 - - 0.0
27/10:30am - - - - - SW 22 43 12 23 - - 0.0
27/10:00am - - - - - SW 22 41 12 22 - - 0.0
27/09:30am - - - - - SW 20 33 11 18 - - 0.0
27/09:00am - - - - - SW 24 35 13 19 - - 1.6
27/08:47am - - - - - SW 28 48 15 26 - - 1.6
27/08:30am - - - - - SW 22 37 12 20 - - 1.6
27/08:00am - - - - - SW 26 35 14 19 - - 1.6
27/07:30am - - - - - SW 26 37 14 20 - - 1.4
27/07:00am - - - - - SW 28 43 15 23 - - 1.4
27/06:30am - - - - - SW 28 43 15 23 - - 1.4
27/06:00am - - - - - SW 33 50 18 27 - - 1.4
27/05:39am - - - - - SW 32 52 17 28 - - 1.4
27/05:30am - - - - - WSW 30 43 16 23 - - 1.4
27/05:12am - - - - - WSW 30 50 16 27 - - 1.4
27/05:00am - - - - - WSW 32 46 17 25 - - 1.4
27/04:53am - - - - - WSW 28 46 15 25 - - 1.4
27/04:30am - - - - - SW 20 33 11 18 - - 1.4
27/04:00am - - - - - WSW 24 41 13 22 - - 1.2
27/03:34am - - - - - WSW 28 48 15 26 - - 1.0
27/03:30am - - - - - WSW 32 48 17 26 - - 1.0
27/03:00am - - - - - WSW 28 48 15 26 - - 1.0
27/02:32am - - - - - WSW 37 57 20 31 - - 0.6
27/02:30am - - - - - WSW 39 57 21 31 - - 0.6
27/02:00am - - - - - WSW 28 46 15 25 - - 0.6
27/01:30am - - - - - WSW 28 50 15 27 - - 0.4
27/01:19am - - - - - WSW 30 50 16 27 - - 0.4
27/01:00am - - - - - WSW 32 44 17 24 - - 0.4
27/12:40am - - - - - WSW 28 46 15 25 - - 0.4
27/12:30am - - - - - WSW 28 41 15 22 - - 0.4
27/12:11am - - - - - WSW 28 48 15 26 - - 0.4
27/12:00am - - - - - WSW 28 44 15 24 - - 0.4
 
Date/Time
EST
Temp
°C
App
Temp
°C
Dew
Point
Rel
Hum
%
Delta-T
°C
Wind Press
QNH
hPa
Press
MSL
hPa
Rain
since 9 am
mm
Dir
 
Spd
km/h
Gust
km/h
Spd
kts
Gust
kts
26/11:30pm - - - - - WSW 22 43 12 23 - - 0.2
26/11:00pm - - - - - WSW 24 39 13 21 - - 0.2
26/10:30pm - - - - - WSW 28 44 15 24 - - 0.2
26/10:00pm - - - - - WSW 24 41 13 22 - - 0.2
26/09:30pm - - - - - SW 22 41 12 22 - - 0.0
26/09:00pm - - - - - WSW 26 48 14 26 - - 0.0
26/08:30pm - - - - - WSW 26 41 14 22 - - 0.0
26/08:02pm - - - - - WSW 30 50 16 27 - - 0.0
26/08:00pm - - - - - WSW 28 50 15 27 - - 0.0
26/07:30pm - - - - - W 22 43 12 23 - - 0.0
26/07:06pm - - - - - WSW 28 50 15 27 - - 0.0
26/07:00pm - - - - - WSW 26 46 14 25 - - 0.0
26/06:32pm - - - - - WSW 30 50 16 27 - - 0.0
26/06:30pm - - - - - WSW 30 44 16 24 - - 0.0
26/06:00pm - - - - - WSW 30 46 16 25 - - 0.0
26/05:30pm - - - - - WSW 30 54 16 29 - - 0.0
26/05:21pm - - - - - WSW 32 50 17 27 - - 0.0
26/05:00pm - - - - - WSW 30 43 16 23 - - 0.0
26/04:30pm - - - - - WSW 26 43 14 23 - - 0.0
26/04:07pm - - - - - SW 30 50 16 27 - - 0.0
26/04:00pm - - - - - WSW 28 46 15 25 - - 0.0
26/03:48pm - - - - - WSW 28 50 15 27 - - 0.0
26/03:30pm - - - - - WSW 22 39 12 21 - - 0.0
26/03:00pm 3.2 -2.5 3.1 99 0.0 WSW 22 43 12 23 - - 0.0
26/02:43pm 3.0 -3.8 2.9 99 0.0 WSW 28 52 15 28 - - 0.0
26/02:30pm 3.5 -2.5 3.4 99 0.0 WSW 24 39 13 21 - - 0.0
26/02:20pm 3.3 -3.5 3.2 99 0.0 WSW 28 54 15 29 - - 0.0
26/02:00pm 3.4 -2.2 3.3 99 0.0 WSW 22 35 12 19 - - 0.0
26/01:30pm 3.7 -2.3 3.6 99 0.0 WSW 24 43 13 23 - - 0.0
26/01:00pm 3.7 -2.6 3.6 99 0.0 SW 26 46 14 25 - - 0.0
26/12:30pm 3.9 -2.8 3.8 99 0.0 SW 28 52 15 28 - - 0.0
26/12:15pm 4.4 -2.2 4.3 99 0.0 SW 28 46 15 25 - - 0.0
26/12:00pm 4.7 -0.1 4.6 99 0.0 WSW 19 39 10 21 - - 0.0
26/11:30am 4.4 -1.0 4.3 99 0.0 WSW 22 37 12 20 - - 0.0
26/11:03am 4.4 -2.9 4.3 99 0.0 WSW 32 52 17 28 - - 0.0
26/11:00am 4.2 -4.1 4.1 99 0.0 SW 37 52 20 28 - - 0.0
26/10:30am 3.7 -3.8 3.6 99 0.0 SW 32 59 17 32 - - 0.0
26/10:02am 3.5 -3.2 3.4 99 0.0 WSW 28 50 15 27 - - 0.0
26/10:00am 3.4 -3.4 3.3 99 0.0 WSW 28 44 15 24 - - 0.0
26/09:33am 3.3 -3.9 3.2 99 0.0 SW 30 50 16 27 - - 0.0
26/09:30am 3.3 -3.1 3.2 99 0.0 SW 26 44 14 24 - - 0.0
26/09:02am 3.2 -4.4 3.1 99 0.0 SW 32 52 17 28 - - 0.0
26/09:00am 3.1 -4.7 3.0 99 0.0 SW 33 52 18 28 - - 11.0
26/08:30am 2.9 -4.7 2.8 99 0.0 SW 32 56 17 30 - - 10.8
26/08:00am 2.8 -4.8 2.7 99 0.0 SW 32 56 17 30 - - 10.8
26/07:30am 2.7 -6.7 2.6 99 0.0 SW 41 65 22 35 - - 10.8
26/07:00am 2.5 -6.9 2.4 99 0.0 SW 41 65 22 35 - - 10.8
26/06:30am 2.6 -5.6 2.5 99 0.0 SW 35 59 19 32 - - 10.8
26/06:09am 2.5 -6.1 2.4 99 0.0 SW 37 57 20 31 - - 10.8
26/06:00am 2.5 -6.9 2.4 99 0.0 SW 41 57 22 31 - - 10.8
26/05:30am 2.6 -5.6 2.5 99 0.0 SW 35 61 19 33 - - 10.8
26/05:05am 2.8 -4.5 2.7 99 0.0 SW 30 50 16 27 - - 10.8
26/05:00am 2.8 -4.8 2.7 99 0.0 SW 32 48 17 26 - - 10.8
26/04:30am 2.8 -5.0 2.7 99 0.0 SW 33 52 18 28 - - 10.6
26/04:00am 2.8 -4.8 2.7 99 0.0 SW 32 56 17 30 - - 10.6
26/03:32am 2.7 -5.1 2.6 99 0.0 SW 33 54 18 29 - - 10.6
26/03:30am 2.7 -5.1 2.6 99 0.0 SSW 33 50 18 27 - - 10.4
26/03:07am 2.9 -6.0 2.8 99 0.0 SSW 39 57 21 31 - - 10.4
26/03:00am 2.9 -6.0 2.8 99 0.0 SSW 39 56 21 30 - - 10.4
26/02:32am 2.9 -5.3 2.8 99 0.0 SW 35 56 19 30 - - 10.2
26/02:30am 3.0 -4.6 2.9 99 0.0 SW 32 46 17 25 - - 10.2
26/02:01am 3.0 -5.2 2.9 99 0.0 SSW 35 56 19 30 - - 10.0
26/02:00am 3.0 -5.5 2.9 99 0.0 SSW 37 56 20 30 - - 10.0
26/01:30am 3.0 -4.8 2.9 99 0.0 SW 33 52 18 28 - - 10.0
26/01:00am 3.0 -4.8 2.9 99 0.0 SW 33 48 18 26 - - 9.8
26/12:30am 3.1 -4.5 3.0 99 0.0 SW 32 48 17 26 - - 9.8
26/12:00am 2.8 -5.4 2.7 99 0.0 SSW 35 61 19 33 - - 9.8
 
Date/Time
EST
Temp
°C
App
Temp
°C
Dew
Point
Rel
Hum
%
Delta-T
°C
Wind Press
QNH
hPa
Press
MSL
hPa
Rain
since 9 am
mm
Dir
 
Spd
km/h
Gust
km/h
Spd
kts
Gust
kts
25/11:30pm 2.4 -6.3 2.3 99 0.0 SSW 37 56 20 30 - - 9.8
25/11:00pm 2.5 -5.2 2.4 99 0.0 SW 32 63 17 34 - - 9.8
25/10:30pm 2.7 -4.6 2.6 99 0.0 SSW 30 52 16 28 - - 9.8
25/10:00pm 3.3 -3.5 3.2 99 0.0 SW 28 46 15 25 - - 9.8
25/09:30pm 3.8 -3.8 3.7 99 0.0 SW 33 59 18 32 - - 9.6
25/09:06pm 3.8 -3.7 3.7 99 0.0 SSW 32 52 17 28 - - 9.4
25/09:00pm 3.7 -4.3 3.6 99 0.0 SSW 35 54 19 29 - - 9.4
25/08:30pm 4.2 -4.1 4.1 99 0.0 SSW 37 65 20 35 - - 9.2
25/08:00pm 4.4 -3.5 4.3 99 0.0 SSW 35 63 19 34 - - 9.2
25/07:30pm 4.8 -2.5 4.7 99 0.0 SSW 32 54 17 29 - - 8.6
25/07:08pm 5.0 -1.8 4.9 99 0.0 SSW 30 50 16 27 - - 8.4
25/07:00pm 5.1 -0.6 5.0 99 0.0 SSW 24 43 13 23 - - 8.2
25/06:35pm 5.4 -1.0 5.3 99 0.0 SSW 28 46 15 25 - - 6.8
25/06:30pm 5.4 -0.6 5.3 99 0.0 SSW 26 43 14 23 - - 6.8
25/06:00pm 5.8 -0.5 5.7 99 0.0 SSW 28 46 15 25 - - 5.8
25/05:30pm 6.1 -0.1 6.0 99 0.0 SSW 28 56 15 30 - - 4.2
25/05:02pm 6.2 0.0 6.1 99 0.0 SSW 28 46 15 25 - - 2.4
25/05:00pm 6.1 -0.5 6.0 99 0.0 SSW 30 46 16 25 - - 2.4
25/04:30pm 6.0 -0.3 5.9 99 0.0 SSW 28 39 15 21 - - 2.0
25/04:00pm 6.2 0.4 6.1 99 0.0 SSW 26 41 14 22 - - 0.2
25/03:30pm 6.3 2.2 6.2 99 0.0 SW 17 30 9 16 - - 0.2
25/03:00pm 6.6 1.6 6.5 99 0.0 SW 22 37 12 20 - - 0.2
25/02:30pm 6.0 0.1 5.9 99 0.0 SW 26 39 14 21 - - 0.2
25/02:00pm 5.9 0.4 5.8 99 0.0 SW 24 37 13 20 - - 0.2
25/01:30pm 5.8 -0.1 5.7 99 0.0 SW 26 39 14 21 - - 0.2
25/01:00pm 5.9 0.4 5.8 99 0.0 SSW 24 35 13 19 - - 0.2
25/12:30pm 5.6 0.0 5.5 99 0.0 SSW 24 33 13 18 - - 0.2
25/12:00pm 5.4 -0.2 5.3 99 0.0 SSW 24 35 13 19 - - 0.2
25/11:30am 5.1 -1.0 5.0 99 0.0 S 26 35 14 19 - - 0.2
25/11:00am 4.9 -0.8 4.8 99 0.0 SSW 24 41 13 22 - - 0.2
25/10:30am 4.8 -0.6 4.7 99 0.0 SSW 22 30 12 16 - - 0.2
25/10:00am 4.6 -0.8 4.5 99 0.0 SSW 22 37 12 20 - - 0.2
25/09:30am 4.1 -2.2 4.0 99 0.0 SSW 26 37 14 20 - - 0.2
25/09:00am 4.1 -1.4 4.0 99 0.0 SSW 22 30 12 16 - - 7.4
25/08:30am 3.9 -2.8 3.8 99 0.0 SSW 28 39 15 21 - - 7.4
25/08:00am 3.3 -2.0 3.0 98 0.1 S 20 30 11 16 - - 7.4
25/07:30am 3.1 -3.2 1.5 89 0.7 S 24 30 13 16 - - 7.4
25/07:00am 2.9 -1.5 0.3 83 1.1 SSW 13 17 7 9 - - 7.4
25/06:30am 2.0 -2.6 1.3 95 0.3 SW 15 19 8 10 - - 7.4
25/06:00am 2.3 -2.1 0.4 87 0.8 WSW 13 15 7 8 - - 7.4
25/05:30am 2.6 -2.2 0.5 86 0.9 SSW 15 19 8 10 - - 7.4
25/05:00am 2.6 -0.7 2.5 99 0.0 S 9 13 5 7 - - 7.4
25/04:30am 2.3 -1.0 2.2 99 0.0 S 9 11 5 6 - - 7.4
25/04:00am 2.7 -0.2 2.6 99 0.0 SW 7 13 4 7 - - 7.4
25/03:30am 2.2 -2.7 2.1 99 0.0 SW 17 20 9 11 - - 7.4
25/03:00am 2.8 -0.8 2.7 99 0.0 SW 11 15 6 8 - - 7.4
25/02:30am 3.0 -0.2 2.9 99 0.0 S 9 11 5 6 - - 7.4
25/02:00am 3.1 0.3 3.0 99 0.0 SW 7 15 4 8 - - 7.4
25/01:30am 2.8 -0.5 2.7 99 0.0 SW 9 15 5 8 - - 7.4
25/01:00am 2.7 -0.2 2.6 99 0.0 WSW 7 11 4 6 - - 7.4
25/12:30am 2.7 -0.2 2.6 99 0.0 SW 7 9 4 5 - - 7.4
25/12:00am 2.5 -1.6 2.4 99 0.0 WSW 13 17 7 9 - - 7.4
 
Date/Time
EST
Temp
°C
App
Temp
°C
Dew
Point
Rel
Hum
%
Delta-T
°C
Wind Press
QNH
hPa
Press
MSL
hPa
Rain
since 9 am
mm
Dir
 
Spd
km/h
Gust
km/h
Spd
kts
Gust
kts
24/11:30pm 2.8 -2.0 2.7 99 0.0 WSW 17 24 9 13 - - 7.4
24/11:00pm 2.8 -2.0 2.7 99 0.0 WSW 17 20 9 11 - - 7.4
24/10:30pm 2.7 -2.7 2.6 99 0.0 WSW 20 26 11 14 - - 7.4
24/10:00pm 3.0 -3.1 2.9 99 0.0 WSW 24 32 13 17 - - 7.4
24/09:30pm 3.5 -2.1 3.4 99 0.0 WSW 22 30 12 16 - - 7.4
24/09:00pm 3.4 -3.7 3.3 99 0.0 WSW 30 37 16 20 - - 7.4
24/08:30pm 3.7 -3.8 3.6 99 0.0 WSW 32 37 17 20 - - 7.4
24/08:00pm 3.9 -2.4 3.8 99 0.0 WSW 26 33 14 18 - - 7.4
24/07:30pm 4.1 -2.5 4.0 99 0.0 WSW 28 33 15 18 - - 7.4
24/07:00pm 4.3 -0.6 4.2 99 0.0 W 19 28 10 15 - - 7.4
24/06:30pm 4.4 -2.9 4.3 99 0.0 WSW 32 44 17 24 - - 7.4
24/06:00pm 5.0 -3.6 4.9 99 0.0 WSW 39 54 21 29 - - 7.2
24/05:53pm 5.3 -1.5 5.2 99 0.0 W 30 48 16 26 - - 7.2
24/05:30pm 6.3 0.5 6.2 99 0.0 WSW 26 43 14 23 - - 6.6
24/05:09pm 6.3 -0.8 6.2 99 0.0 W 33 54 18 29 - - 6.0
24/05:00pm 6.3 -0.7 6.2 99 0.0 W 32 46 17 25 - - 5.8
24/04:30pm 6.0 0.5 5.9 99 0.0 W 24 32 13 17 - - 3.8
24/04:00pm 8.1 4.8 8.0 99 0.1 NNW 15 26 8 14 - - 0.0
24/03:30pm 8.4 5.2 8.3 99 0.1 NW 15 24 8 13 - - 0.0
24/03:00pm 8.4 5.5 8.3 99 0.1 NW 13 20 7 11 - - 0.0
24/02:30pm 7.8 4.8 7.7 99 0.1 WNW 13 19 7 10 - - 0.0

Other Formats:

Comma delimited format used in spreadsheet applications
http://www.bom.gov.au/fwo/IDV60801/IDV60801.94833.axf

JavaScript Object Notation format (JSON) in row-major order
http://www.bom.gov.au/fwo/IDV60801/IDV60801.94833.json